< < Back
Terminal Aerodrome Forecast


Current Version              Previous Versions:   1  2  3  4  5  6  7  8  9  

Terminal Aerodrome Forecast

929
FTAK31 PAJN 152300
TAFAGS
TAF
PAGS 152326Z 1600/1624 21006KT P6SM FEW060 BKN070 BKN090
     FM160200 32004KT P6SM BKN050 OVC070
     FM161000 VRB02KT P6SM OVC050
     FM161900 35008KT P6SM BKN070 OVC100
      AMD LTD TO CLD VIS AND WIND=



Latest METAR

370
SAUS70 KWBC 160700 RRI
MTRAGS
METAR KAGS 160653Z AUTO 01008KT 10SM CLR 05/M02 A3014 RMK AO2 SLP206
T00501022


USA.gov is the U.S. government's official web portal to all federal, state and local government web resources and services.